createdAt,value
2019-06-01T00:00:21.929Z,0.00
2019-06-01T00:01:21.893Z,0.00
2019-06-01T00:02:21.883Z,0.00
2019-06-01T00:03:21.874Z,0.00
2019-06-01T00:04:21.860Z,0.00
2019-06-01T00:05:21.850Z,0.00
2019-06-01T00:06:21.847Z,0.00
2019-06-01T00:07:21.830Z,0.00
2019-06-01T00:08:21.816Z,0.00
2019-06-01T00:09:21.805Z,0.00
2019-06-01T00:10:21.797Z,0.00
2019-06-01T00:11:21.791Z,0.00
2019-06-01T00:12:21.774Z,0.00
2019-06-01T00:13:21.763Z,0.00
2019-06-01T00:14:21.750Z,0.00
2019-06-01T00:15:21.740Z,0.00
2019-06-01T00:16:21.737Z,0.00
2019-06-01T00:17:21.718Z,0.00
2019-06-01T00:18:21.707Z,0.00
2019-06-01T00:19:21.695Z,0.00
2019-06-01T00:20:21.684Z,0.00
2019-06-01T00:21:21.681Z,0.00
2019-06-01T00:22:21.667Z,0.00
2019-06-01T00:23:21.654Z,0.00
2019-06-01T00:24:21.643Z,0.00
2019-06-01T00:25:21.631Z,0.00
2019-06-01T00:26:21.627Z,0.00
2019-06-01T00:27:21.607Z,0.00
2019-06-01T00:28:21.605Z,0.00
2019-06-01T00:29:21.595Z,0.00
2019-06-01T00:30:27.037Z,0.00
2019-06-01T00:31:22.572Z,0.00
2019-06-01T00:32:21.557Z,0.00
2019-06-01T00:33:21.543Z,0.00
2019-06-01T00:34:21.535Z,0.00
2019-06-01T00:35:21.521Z,0.00
2019-06-01T00:36:21.519Z,0.00
2019-06-01T00:37:21.499Z,0.00
2019-06-01T00:38:21.488Z,0.00
2019-06-01T00:39:21.481Z,0.00
2019-06-01T00:40:21.472Z,0.00
2019-06-01T00:41:21.464Z,0.00
2019-06-01T00:42:21.443Z,0.00
2019-06-01T00:43:21.435Z,0.00
2019-06-01T00:44:21.426Z,0.00
2019-06-01T00:45:21.412Z,0.00
2019-06-01T00:46:21.410Z,0.00
2019-06-01T00:47:21.391Z,0.00
2019-06-01T00:48:21.378Z,0.00
2019-06-01T00:49:21.371Z,0.00
2019-06-01T00:50:21.357Z,0.00
2019-06-01T00:51:21.356Z,0.00
2019-06-01T00:52:21.334Z,0.00
2019-06-01T00:53:21.323Z,0.00
2019-06-01T00:54:21.314Z,0.00
2019-06-01T00:55:21.303Z,0.00
2019-06-01T00:56:21.302Z,0.00
2019-06-01T00:57:22.186Z,0.00
2019-06-01T00:58:21.271Z,0.00
2019-06-01T00:59:21.260Z,0.00
2019-06-01T01:00:21.247Z,0.00
2019-06-01T01:01:21.250Z,0.00
2019-06-01T01:02:21.226Z,0.00
2019-06-01T01:03:21.219Z,0.00
2019-06-01T01:04:21.203Z,0.00
2019-06-01T01:05:21.193Z,0.00
2019-06-01T01:06:21.192Z,0.00
2019-06-01T01:07:21.178Z,0.00
2019-06-01T01:08:21.160Z,0.00
2019-06-01T01:09:21.149Z,0.00
2019-06-01T01:10:21.138Z,0.00
2019-06-01T01:11:21.134Z,0.00
2019-06-01T01:12:21.120Z,0.00
2019-06-01T01:13:21.108Z,0.00
2019-06-01T01:14:21.098Z,0.00
2019-06-01T01:15:21.100Z,0.00
2019-06-01T01:16:21.083Z,0.00
2019-06-01T01:17:21.061Z,0.00
2019-06-01T01:18:21.052Z,0.00
2019-06-01T01:19:21.040Z,0.00
2019-06-01T01:20:21.029Z,0.00
2019-06-01T01:21:21.019Z,0.00
2019-06-01T01:22:21.018Z,0.00
2019-06-01T01:23:20.998Z,0.00
2019-06-01T01:24:20.997Z,0.00
2019-06-01T01:25:20.975Z,0.00
2019-06-01T01:26:20.965Z,0.00
2019-06-01T01:27:20.962Z,0.00
2019-06-01T01:28:23.870Z,0.00
2019-06-01T01:29:20.933Z,0.00
2019-06-01T01:30:20.924Z,0.00
2019-06-01T01:31:20.914Z,0.00
2019-06-01T01:32:20.908Z,0.00
2019-06-01T01:33:20.906Z,0.00
2019-06-01T01:34:20.879Z,0.00
2019-06-01T01:35:20.870Z,0.00
2019-06-01T01:36:20.860Z,0.00
2019-06-01T01:37:20.855Z,0.00
2019-06-01T01:38:20.836Z,0.00
2019-06-01T01:39:20.825Z,0.00
2019-06-01T01:40:20.813Z,0.00
2019-06-01T01:41:20.802Z,0.00
2019-06-01T01:42:20.800Z,0.00
2019-06-01T01:43:20.786Z,0.00
2019-06-01T01:44:20.770Z,0.00
2019-06-01T01:45:20.760Z,0.00
2019-06-01T01:46:20.755Z,0.00
2019-06-01T01:47:20.747Z,0.00
2019-06-01T01:48:20.726Z,0.00
2019-06-01T01:49:20.726Z,0.00
2019-06-01T01:50:20.712Z,0.00
2019-06-01T01:51:20.695Z,0.00
2019-06-01T01:52:20.697Z,0.00
2019-06-01T01:53:20.673Z,0.00
2019-06-01T01:54:20.666Z,0.00
2019-06-01T01:55:20.651Z,0.00
2019-06-01T01:56:20.640Z,0.00
2019-06-01T01:57:20.639Z,0.00
2019-06-01T01:58:20.618Z,0.00
2019-06-01T01:59:20.609Z,0.00
2019-06-01T02:00:20.602Z,0.00
2019-06-01T02:01:23.016Z,0.00
2019-06-01T02:02:20.585Z,0.00
2019-06-01T02:03:20.564Z,0.00
2019-06-01T02:04:20.558Z,0.00
2019-06-01T02:05:20.548Z,0.00
2019-06-01T02:06:20.534Z,0.00
2019-06-01T02:07:20.546Z,0.00
2019-06-01T02:08:20.513Z,0.00
2019-06-01T02:09:20.501Z,0.00
2019-06-01T02:10:20.489Z,0.00
2019-06-01T02:11:20.478Z,0.00
2019-06-01T02:12:20.479Z,0.00
2019-06-01T02:13:20.459Z,0.00
2019-06-01T02:14:20.458Z,0.00
2019-06-01T02:15:20.435Z,0.00
2019-06-01T02:16:20.432Z,0.00
2019-06-01T02:17:20.426Z,0.00
2019-06-01T02:18:20.403Z,0.00
2019-06-01T02:19:20.393Z,0.00
2019-06-01T02:20:20.382Z,0.00
2019-06-01T02:21:20.373Z,0.00
2019-06-01T02:22:20.380Z,0.00
2019-06-01T02:23:20.364Z,0.00
2019-06-01T02:24:20.337Z,0.00
2019-06-01T02:25:20.327Z,0.00
2019-06-01T02:26:20.316Z,0.00
2019-06-01T02:27:20.313Z,0.00
2019-06-01T02:28:20.299Z,0.00
2019-06-01T02:29:20.289Z,0.00
2019-06-01T02:30:20.275Z,0.00
2019-06-01T02:31:37.460Z,0.00
2019-06-01T02:32:21.287Z,0.00
2019-06-01T02:33:20.245Z,0.00
2019-06-01T02:34:20.229Z,0.00
2019-06-01T02:35:20.218Z,0.00
2019-06-01T02:36:20.208Z,5.62
2019-06-01T02:37:20.199Z,5.62
2019-06-01T02:38:20.196Z,5.62
2019-06-01T02:39:20.176Z,5.62
2019-06-01T02:40:20.172Z,5.62
2019-06-01T02:41:20.153Z,5.62
2019-06-01T02:42:20.142Z,5.62
2019-06-01T02:43:20.140Z,5.62
2019-06-01T02:44:20.131Z,5.62
2019-06-01T02:45:20.114Z,5.62
2019-06-01T02:46:20.100Z,5.62
2019-06-01T02:47:20.089Z,5.62
2019-06-01T02:48:20.086Z,11.25
2019-06-01T02:49:20.069Z,11.25
2019-06-01T02:50:20.055Z,11.25
2019-06-01T02:51:20.046Z,11.25
2019-06-01T02:52:20.040Z,11.25
2019-06-01T02:53:20.030Z,11.25
2019-06-01T02:54:20.014Z,11.25
2019-06-01T02:55:20.005Z,16.88
2019-06-01T02:56:19.996Z,16.88
2019-06-01T02:57:19.984Z,16.88
2019-06-01T02:58:19.979Z,16.88
2019-06-01T02:59:19.957Z,16.88
2019-06-01T03:00:19.947Z,22.50
2019-06-01T03:01:19.936Z,22.50
2019-06-01T03:02:19.927Z,22.50
2019-06-01T03:03:19.923Z,22.50
2019-06-01T03:04:19.905Z,28.12
2019-06-01T03:05:19.896Z,28.12
2019-06-01T03:06:19.881Z,28.12
2019-06-01T03:07:19.873Z,33.75
2019-06-01T03:08:19.871Z,33.75
2019-06-01T03:09:19.852Z,33.75
2019-06-01T03:10:19.838Z,33.75
2019-06-01T03:11:19.828Z,39.38
2019-06-01T03:12:19.817Z,39.38
2019-06-01T03:13:19.814Z,39.38
2019-06-01T03:14:19.796Z,45.00
2019-06-01T03:15:19.789Z,45.00
2019-06-01T03:16:19.775Z,50.62
2019-06-01T03:17:19.764Z,50.62
2019-06-01T03:18:19.759Z,56.25
2019-06-01T03:19:19.741Z,61.88
2019-06-01T03:20:19.733Z,61.88
2019-06-01T03:21:19.720Z,67.50
2019-06-01T03:22:19.707Z,67.50
2019-06-01T03:23:19.709Z,67.50
2019-06-01T03:24:19.690Z,73.12
2019-06-01T03:25:19.678Z,78.75
2019-06-01T03:26:19.664Z,78.75
2019-06-01T03:27:19.653Z,84.38
2019-06-01T03:28:19.652Z,90.00
2019-06-01T03:29:19.636Z,90.00
2019-06-01T03:30:19.623Z,101.25
2019-06-01T03:31:19.617Z,106.88
2019-06-01T03:32:35.015Z,106.88
2019-06-01T03:33:20.598Z,106.88
2019-06-01T03:34:19.580Z,112.50
2019-06-01T03:35:19.567Z,112.50
2019-06-01T03:36:19.559Z,112.50
2019-06-01T03:37:19.548Z,112.50
2019-06-01T03:38:19.559Z,118.12
2019-06-01T03:39:19.523Z,123.75
2019-06-01T03:40:24.026Z,129.38
2019-06-01T03:41:19.505Z,135.00
2019-06-01T03:42:19.491Z,146.25
2019-06-01T03:43:19.482Z,146.25
2019-06-01T03:44:19.478Z,163.12
2019-06-01T03:45:19.458Z,196.88
2019-06-01T03:46:19.451Z,219.38
2019-06-01T03:47:19.442Z,208.12
2019-06-01T03:48:19.434Z,202.50
2019-06-01T03:49:19.424Z,213.75
2019-06-01T03:50:19.404Z,253.12
2019-06-01T03:51:19.400Z,258.75
2019-06-01T03:52:19.382Z,241.88
2019-06-01T03:53:19.371Z,230.62
2019-06-01T03:54:19.370Z,219.38
2019-06-01T03:55:19.350Z,225.00
2019-06-01T03:56:19.338Z,247.50
2019-06-01T03:57:19.327Z,337.50
2019-06-01T03:58:19.318Z,500.62
2019-06-01T03:59:19.316Z,607.50
2019-06-01T04:00:19.295Z,646.88
2019-06-01T04:01:19.288Z,613.12
2019-06-01T04:02:32.410Z,675.00
2019-06-01T04:03:20.261Z,742.50
2019-06-01T04:04:19.259Z,855.00
2019-06-01T04:05:19.242Z,939.38
2019-06-01T04:06:19.230Z,956.25
2019-06-01T04:07:19.223Z,928.12
2019-06-01T04:08:19.207Z,922.50
2019-06-01T04:09:19.205Z,928.12
2019-06-01T04:10:19.186Z,995.62
2019-06-01T04:11:19.178Z,1029.38
2019-06-01T04:12:19.171Z,1063.12
2019-06-01T04:13:19.153Z,1063.12
2019-06-01T04:14:19.151Z,1046.25
2019-06-01T04:15:19.134Z,1096.88
2019-06-01T04:16:19.122Z,1068.75
2019-06-01T04:17:19.111Z,1096.88
2019-06-01T04:18:19.100Z,1153.12
2019-06-01T04:19:19.101Z,1265.62
2019-06-01T04:20:19.078Z,1265.62
2019-06-01T04:21:19.070Z,1243.12
2019-06-01T04:22:19.057Z,1344.38
2019-06-01T04:23:19.045Z,1327.50
2019-06-01T04:24:19.048Z,1209.38
2019-06-01T04:25:19.025Z,1226.25
2019-06-01T04:26:19.014Z,1248.75
2019-06-01T04:27:19.004Z,1299.38
2019-06-01T04:28:18.991Z,1293.75
2019-06-01T04:29:18.999Z,1327.50
2019-06-01T04:30:18.972Z,1248.75
2019-06-01T04:31:18.976Z,1333.12
2019-06-01T04:32:18.950Z,1456.88
2019-06-01T04:33:18.938Z,1417.50
2019-06-01T04:34:18.940Z,1485.00
2019-06-01T04:35:18.918Z,1558.12
2019-06-01T04:36:18.911Z,1473.75
2019-06-01T04:37:18.896Z,1586.25
2019-06-01T04:38:18.887Z,1755.00
2019-06-01T04:39:18.882Z,1766.25
2019-06-01T04:40:18.869Z,1642.50
2019-06-01T04:41:18.857Z,1625.62
2019-06-01T04:42:18.841Z,1805.62
2019-06-01T04:43:18.836Z,2036.25
2019-06-01T04:44:18.828Z,2030.62
2019-06-01T04:45:18.812Z,2070.00
2019-06-01T04:46:18.807Z,2182.50
2019-06-01T04:47:18.789Z,2081.25
2019-06-01T04:48:18.779Z,2081.25
2019-06-01T04:49:18.778Z,2171.25
2019-06-01T04:50:18.761Z,2227.50
2019-06-01T04:51:18.757Z,2306.25
2019-06-01T04:52:18.744Z,2345.62
2019-06-01T04:53:18.727Z,2272.50
2019-06-01T04:54:18.727Z,2311.88
2019-06-01T04:55:18.706Z,2323.12
2019-06-01T04:56:18.697Z,2193.75
2019-06-01T04:57:18.695Z,2148.75
2019-06-01T04:58:18.675Z,2306.25
2019-06-01T04:59:18.674Z,2413.12
2019-06-01T05:00:25.731Z,2390.62
2019-06-01T05:01:19.642Z,2435.62
2019-06-01T05:02:18.634Z,2480.62
2019-06-01T05:03:18.626Z,2581.88
2019-06-01T05:04:18.638Z,2553.75
2019-06-01T05:05:18.604Z,2531.25
2019-06-01T05:06:18.595Z,2660.62
2019-06-01T05:07:18.583Z,2711.25
2019-06-01T05:08:18.576Z,2761.88
2019-06-01T05:09:18.595Z,2638.12
2019-06-01T05:10:18.565Z,2536.88
2019-06-01T05:11:18.542Z,2306.25
2019-06-01T05:12:18.534Z,2120.62
2019-06-01T05:13:18.531Z,2750.62
2019-06-01T05:14:18.513Z,2891.25
2019-06-01T05:15:18.514Z,2902.50
2019-06-01T05:16:18.495Z,2857.50
2019-06-01T05:17:18.484Z,2868.75
2019-06-01T05:18:19.726Z,2379.38
2019-06-01T05:19:18.467Z,2795.62
2019-06-01T05:20:18.465Z,2790.00
2019-06-01T05:21:18.446Z,2823.75
2019-06-01T05:22:18.439Z,2818.12
2019-06-01T05:23:18.430Z,2823.75
2019-06-01T05:24:18.414Z,2840.62
2019-06-01T05:25:18.415Z,2745.00
2019-06-01T05:26:18.395Z,2390.62
2019-06-01T05:27:18.386Z,1170.00
2019-06-01T05:28:18.386Z,905.62
2019-06-01T05:29:18.377Z,748.12
2019-06-01T05:30:18.364Z,686.25
2019-06-01T05:31:24.314Z,680.62
2019-06-01T05:32:19.335Z,663.75
2019-06-01T05:33:33.251Z,686.25
2019-06-01T05:34:19.323Z,731.25
2019-06-01T05:35:18.314Z,691.88
2019-06-01T05:36:18.419Z,2188.12
2019-06-01T05:37:18.683Z,2120.62
2019-06-01T05:38:18.645Z,675.00
2019-06-01T05:39:18.767Z,669.38
2019-06-01T05:40:19.775Z,675.00
2019-06-01T05:41:19.898Z,601.88
2019-06-01T05:42:19.001Z,765.00
2019-06-01T05:43:21.139Z,450.00
2019-06-01T05:44:19.298Z,382.50
2019-06-01T05:45:19.279Z,360.00
2019-06-01T05:46:18.202Z,348.75
2019-06-01T05:47:18.436Z,331.88
2019-06-01T05:48:24.724Z,348.75
2019-06-01T05:49:19.160Z,354.38
2019-06-01T05:50:18.542Z,691.88
2019-06-01T05:51:19.734Z,326.25
2019-06-01T05:52:18.819Z,253.12
2019-06-01T05:53:19.868Z,230.62
2019-06-01T05:54:18.858Z,236.25
2019-06-01T05:55:18.804Z,253.12
2019-06-01T05:56:18.964Z,258.75
2019-06-01T05:57:19.325Z,247.50
2019-06-01T05:58:19.514Z,241.88
2019-06-01T05:59:18.363Z,236.25
2019-06-01T06:00:19.130Z,270.00
2019-06-01T06:01:19.608Z,270.00
2019-06-01T06:02:18.027Z,472.50
2019-06-01T06:03:22.007Z,264.38
2019-06-01T06:04:19.561Z,236.25
2019-06-01T06:05:18.732Z,236.25
2019-06-01T06:06:17.995Z,236.25
2019-06-01T06:07:19.010Z,236.25
2019-06-01T06:08:18.089Z,236.25
2019-06-01T06:09:19.116Z,236.25
2019-06-01T06:10:18.509Z,236.25
2019-06-01T06:11:18.787Z,219.38
2019-06-01T06:12:19.363Z,225.00
2019-06-01T06:13:17.907Z,247.50
2019-06-01T06:14:17.922Z,281.25
2019-06-01T06:15:17.889Z,286.88
2019-06-01T06:16:18.258Z,286.88
2019-06-01T06:17:19.777Z,264.38
2019-06-01T06:18:17.906Z,270.00
2019-06-01T06:19:20.627Z,286.88
2019-06-01T06:20:18.048Z,292.50
2019-06-01T06:21:18.479Z,236.25
2019-06-01T06:22:18.260Z,219.38
2019-06-01T06:23:18.501Z,241.88
2019-06-01T06:24:18.555Z,298.12
2019-06-01T06:25:17.823Z,258.75
2019-06-01T06:26:19.108Z,320.62
2019-06-01T06:27:18.589Z,354.38
2019-06-01T06:28:18.802Z,270.00
2019-06-01T06:29:18.832Z,247.50
2019-06-01T06:30:18.922Z,213.75
2019-06-01T06:31:19.140Z,202.50
2019-06-01T06:32:17.711Z,208.12
2019-06-01T06:33:17.699Z,208.12
2019-06-01T06:34:17.689Z,236.25
2019-06-01T06:35:17.681Z,331.88
2019-06-01T06:36:17.827Z,292.50
2019-06-01T06:37:17.709Z,472.50
2019-06-01T06:38:17.838Z,1558.12
2019-06-01T06:39:17.939Z,2700.00
2019-06-01T06:40:18.014Z,2508.75
2019-06-01T06:41:18.249Z,2345.62
2019-06-01T06:42:18.585Z,1580.62
2019-06-01T06:43:22.776Z,939.38
2019-06-01T06:44:18.599Z,832.50
2019-06-01T06:45:18.620Z,911.25
2019-06-01T06:46:18.649Z,871.88
2019-06-01T06:47:18.721Z,815.62
2019-06-01T06:48:17.543Z,849.38
2019-06-01T06:49:17.535Z,804.38
2019-06-01T06:50:17.576Z,787.50
2019-06-01T06:51:17.515Z,675.00
2019-06-01T06:52:17.525Z,714.38
2019-06-01T06:53:28.223Z,658.12
2019-06-01T06:54:19.726Z,641.25
2019-06-01T06:55:17.789Z,669.38
2019-06-01T06:56:17.903Z,680.62
2019-06-01T06:57:17.997Z,641.25
2019-06-01T06:58:18.837Z,596.25
2019-06-01T06:59:18.431Z,731.25
2019-06-01T07:00:18.433Z,562.50
2019-06-01T07:01:18.647Z,579.38
2019-06-01T07:02:18.670Z,534.38
2019-06-01T07:03:17.376Z,489.38
2019-06-01T07:04:17.370Z,472.50
2019-06-01T07:05:17.362Z,630.00
2019-06-01T07:06:17.396Z,675.00
2019-06-01T07:07:17.644Z,703.12
2019-06-01T07:08:17.667Z,708.75
2019-06-01T07:09:17.892Z,697.50
2019-06-01T07:10:18.009Z,658.12
2019-06-01T07:11:17.309Z,663.75
2019-06-01T07:12:17.291Z,601.88
2019-06-01T07:13:17.286Z,585.00
2019-06-01T07:14:17.264Z,607.50
2019-06-01T07:15:17.252Z,691.88
2019-06-01T07:16:17.242Z,708.75
2019-06-01T07:17:17.238Z,686.25
2019-06-01T07:18:17.221Z,658.12
2019-06-01T07:19:17.221Z,652.50
2019-06-01T07:20:17.204Z,658.12
2019-06-01T07:21:17.196Z,624.38
2019-06-01T07:22:17.380Z,635.62
2019-06-01T07:23:17.184Z,601.88
2019-06-01T07:24:17.155Z,596.25
2019-06-01T07:25:17.153Z,573.75
2019-06-01T07:26:17.138Z,545.62
2019-06-01T07:27:17.150Z,517.50
2019-06-01T07:28:17.122Z,517.50
2019-06-01T07:29:17.112Z,495.00
2019-06-01T07:30:17.092Z,506.25
2019-06-01T07:31:17.080Z,517.50
2019-06-01T07:32:17.078Z,528.75
2019-06-01T07:33:17.075Z,528.75
2019-06-01T07:34:30.718Z,506.25
2019-06-01T07:35:18.037Z,528.75
2019-06-01T07:36:17.042Z,528.75
2019-06-01T07:37:17.030Z,523.12
2019-06-01T07:38:17.031Z,534.38
2019-06-01T07:39:16.995Z,528.75
2019-06-01T07:40:16.990Z,534.38
2019-06-01T07:41:17.005Z,540.00
2019-06-01T07:42:16.996Z,534.38
2019-06-01T07:43:16.951Z,450.00
2019-06-01T07:44:16.942Z,534.38
2019-06-01T07:45:16.940Z,545.62
2019-06-01T07:46:16.921Z,511.88
2019-06-01T07:47:16.916Z,472.50
2019-06-01T07:48:16.898Z,461.25
2019-06-01T07:49:16.887Z,489.38
2019-06-01T07:50:16.882Z,500.62
2019-06-01T07:51:16.867Z,495.00
2019-06-01T07:52:16.863Z,551.25
2019-06-01T07:53:16.845Z,585.00
2019-06-01T07:54:16.832Z,562.50
2019-06-01T07:55:16.823Z,534.38
2019-06-01T07:56:16.811Z,472.50
2019-06-01T07:57:16.814Z,421.88
2019-06-01T07:58:16.795Z,388.12
2019-06-01T07:59:16.780Z,444.38
2019-06-01T08:00:16.772Z,540.00
2019-06-01T08:01:16.768Z,562.50
2019-06-01T08:02:16.765Z,523.12
2019-06-01T08:03:16.736Z,556.88
2019-06-01T08:04:16.727Z,556.88
2019-06-01T08:05:16.721Z,556.88
2019-06-01T08:06:16.703Z,556.88
2019-06-01T08:07:16.776Z,545.62
2019-06-01T08:08:16.687Z,528.75
2019-06-01T08:09:16.674Z,528.75
2019-06-01T08:10:16.662Z,528.75
2019-06-01T08:11:16.650Z,523.12
2019-06-01T08:12:16.734Z,517.50
2019-06-01T08:13:16.629Z,517.50
2019-06-01T08:14:16.621Z,517.50
2019-06-01T08:15:16.606Z,511.88
2019-06-01T08:16:16.598Z,506.25
2019-06-01T08:17:16.586Z,500.62
2019-06-01T08:18:16.587Z,478.12
2019-06-01T08:19:16.563Z,433.12
2019-06-01T08:20:16.554Z,410.62
2019-06-01T08:21:16.543Z,461.25
2019-06-01T08:22:16.532Z,466.88
2019-06-01T08:23:16.530Z,427.50
2019-06-01T08:24:16.601Z,427.50
2019-06-01T08:25:16.499Z,438.75
2019-06-01T08:26:19.892Z,461.25
2019-06-01T08:27:16.478Z,461.25
2019-06-01T08:28:16.476Z,483.75
2019-06-01T08:29:16.456Z,472.50
2019-06-01T08:30:16.446Z,438.75
2019-06-01T08:31:16.434Z,416.25
2019-06-01T08:32:16.423Z,466.88
2019-06-01T08:33:16.425Z,421.88
2019-06-01T08:34:16.404Z,466.88
2019-06-01T08:35:16.391Z,466.88
2019-06-01T08:36:16.382Z,461.25
2019-06-01T08:37:16.370Z,461.25
2019-06-01T08:38:16.372Z,455.62
2019-06-01T08:39:16.349Z,450.00
2019-06-01T08:40:16.339Z,433.12
2019-06-01T08:41:16.327Z,433.12
2019-06-01T08:42:16.319Z,427.50
2019-06-01T08:43:16.315Z,421.88
2019-06-01T08:44:16.298Z,410.62
2019-06-01T08:45:16.283Z,393.75
2019-06-01T08:46:16.273Z,399.38
2019-06-01T08:47:16.264Z,388.12
2019-06-01T08:48:16.259Z,388.12
2019-06-01T08:49:16.248Z,393.75
2019-06-01T08:50:16.232Z,405.00
2019-06-01T08:51:16.219Z,376.88
2019-06-01T08:52:16.211Z,410.62
2019-06-01T08:53:16.212Z,348.75
2019-06-01T08:54:16.188Z,416.25
2019-06-01T08:55:16.177Z,376.88
2019-06-01T08:56:16.165Z,348.75
2019-06-01T08:57:16.155Z,337.50
2019-06-01T08:58:16.153Z,343.12
2019-06-01T08:59:16.134Z,376.88
2019-06-01T09:00:16.122Z,337.50
2019-06-01T09:01:16.114Z,320.62
2019-06-01T09:02:16.101Z,371.25
2019-06-01T09:03:16.102Z,315.00
2019-06-01T09:04:16.082Z,303.75
2019-06-01T09:05:24.340Z,303.75
2019-06-01T09:06:17.062Z,343.12
2019-06-01T09:07:16.052Z,433.12
2019-06-01T09:08:16.048Z,455.62
2019-06-01T09:09:16.027Z,478.12
2019-06-01T09:10:16.019Z,461.25
2019-06-01T09:11:16.008Z,466.88
2019-06-01T09:12:15.996Z,466.88
2019-06-01T09:13:15.993Z,466.88
2019-06-01T09:14:15.974Z,450.00
2019-06-01T09:15:15.964Z,461.25
2019-06-01T09:16:15.955Z,461.25
2019-06-01T09:17:18.758Z,461.25
2019-06-01T09:18:15.941Z,450.00
2019-06-01T09:19:15.921Z,421.88
2019-06-01T09:20:15.909Z,450.00
2019-06-01T09:21:15.901Z,438.75
2019-06-01T09:22:15.898Z,365.62
2019-06-01T09:23:15.892Z,365.62
2019-06-01T09:24:15.867Z,320.62
2019-06-01T09:25:15.859Z,382.50
2019-06-01T09:26:15.847Z,410.62
2019-06-01T09:27:15.835Z,315.00
2019-06-01T09:28:15.823Z,298.12
2019-06-01T09:29:15.822Z,410.62
2019-06-01T09:30:15.803Z,421.88
2019-06-01T09:31:15.792Z,472.50
2019-06-01T09:32:15.782Z,489.38
2019-06-01T09:33:15.773Z,478.12
2019-06-01T09:34:15.769Z,472.50
2019-06-01T09:35:15.751Z,472.50
2019-06-01T09:36:15.780Z,354.38
2019-06-01T09:37:15.728Z,433.12
2019-06-01T09:38:15.717Z,461.25
2019-06-01T09:39:15.725Z,450.00
2019-06-01T09:40:15.704Z,438.75
2019-06-01T09:41:15.693Z,438.75
2019-06-01T09:42:15.677Z,438.75
2019-06-01T09:43:15.665Z,466.88
2019-06-01T09:44:15.660Z,455.62
2019-06-01T09:45:15.641Z,427.50
2019-06-01T09:46:15.630Z,455.62
2019-06-01T09:47:15.633Z,438.75
2019-06-01T09:48:15.613Z,331.88
2019-06-01T09:49:15.607Z,309.38
2019-06-01T09:50:15.592Z,354.38
2019-06-01T09:51:15.608Z,360.00
2019-06-01T09:52:15.569Z,388.12
2019-06-01T09:53:15.560Z,388.12
2019-06-01T09:54:15.554Z,416.25
2019-06-01T09:55:15.581Z,427.50
2019-06-01T09:56:15.524Z,320.62
2019-06-01T09:57:15.524Z,298.12
2019-06-01T09:58:15.503Z,286.88
2019-06-01T09:59:15.502Z,360.00
2019-06-01T10:00:15.482Z,286.88
2019-06-01T10:01:15.469Z,410.62
2019-06-01T10:02:15.458Z,438.75
2019-06-01T10:03:15.453Z,438.75
2019-06-01T10:04:15.447Z,438.75
2019-06-01T10:05:15.426Z,450.00
2019-06-01T10:06:15.418Z,444.38
2019-06-01T10:07:15.405Z,455.62
2019-06-01T10:08:15.394Z,455.62
2019-06-01T10:09:15.394Z,450.00
2019-06-01T10:10:15.426Z,450.00
2019-06-01T10:11:15.367Z,410.62
2019-06-01T10:12:15.409Z,450.00
2019-06-01T10:13:15.341Z,438.75
2019-06-01T10:14:15.346Z,438.75
2019-06-01T10:15:15.323Z,444.38
2019-06-01T10:16:15.313Z,433.12
2019-06-01T10:17:15.299Z,393.75
2019-06-01T10:18:15.288Z,421.88
2019-06-01T10:19:15.290Z,427.50
2019-06-01T10:20:15.280Z,427.50
2019-06-01T10:21:15.256Z,433.12
2019-06-01T10:22:15.260Z,433.12
2019-06-01T10:23:15.238Z,433.12
2019-06-01T10:24:15.234Z,433.12
2019-06-01T10:25:15.215Z,399.38
2019-06-01T10:26:15.205Z,405.00
2019-06-01T10:27:15.196Z,382.50
2019-06-01T10:28:15.186Z,382.50
2019-06-01T10:29:15.181Z,405.00
2019-06-01T10:30:15.284Z,405.00
2019-06-01T10:31:15.150Z,236.25
2019-06-01T10:32:15.157Z,393.75
2019-06-01T10:33:15.134Z,213.75
2019-06-01T10:34:15.147Z,365.62
2019-06-01T10:35:15.110Z,348.75
2019-06-01T10:36:20.448Z,382.50
2019-06-01T10:37:16.086Z,376.88
2019-06-01T10:38:15.083Z,236.25
2019-06-01T10:39:15.080Z,225.00
2019-06-01T10:40:15.088Z,281.25
2019-06-01T10:41:15.046Z,388.12
2019-06-01T10:42:15.035Z,382.50
2019-06-01T10:43:15.027Z,388.12
2019-06-01T10:44:15.035Z,382.50
2019-06-01T10:45:15.003Z,371.25
2019-06-01T10:46:14.995Z,360.00
2019-06-01T10:47:14.982Z,348.75
2019-06-01T10:48:14.972Z,230.62
2019-06-01T10:49:14.965Z,337.50
2019-06-01T10:50:17.340Z,337.50
2019-06-01T10:51:14.939Z,348.75
2019-06-01T10:52:14.929Z,354.38
2019-06-01T10:53:14.918Z,365.62
2019-06-01T10:54:14.909Z,343.12
2019-06-01T10:55:14.909Z,354.38
2019-06-01T10:56:14.891Z,354.38
2019-06-01T10:57:14.876Z,225.00
2019-06-01T10:58:14.865Z,241.88
2019-06-01T10:59:14.865Z,191.25
2019-06-01T11:00:14.854Z,185.62
2019-06-01T11:01:14.835Z,174.38
2019-06-01T11:02:14.825Z,180.00
2019-06-01T11:03:14.817Z,343.12
2019-06-01T11:04:14.803Z,348.75
2019-06-01T11:05:14.801Z,348.75
2019-06-01T11:06:14.780Z,354.38
2019-06-01T11:07:14.772Z,360.00
2019-06-01T11:08:14.760Z,360.00
2019-06-01T11:09:14.754Z,348.75
2019-06-01T11:10:14.748Z,348.75
2019-06-01T11:11:14.748Z,354.38
2019-06-01T11:12:14.717Z,213.75
2019-06-01T11:13:14.707Z,343.12
2019-06-01T11:14:14.699Z,320.62
2019-06-01T11:15:14.693Z,348.75
2019-06-01T11:16:14.674Z,337.50
2019-06-01T11:17:14.690Z,337.50
2019-06-01T11:18:14.653Z,343.12
2019-06-01T11:19:14.647Z,354.38
2019-06-01T11:20:14.642Z,360.00
2019-06-01T11:21:14.623Z,376.88
2019-06-01T11:22:14.612Z,376.88
2019-06-01T11:23:14.601Z,371.25
2019-06-01T11:24:14.589Z,371.25
2019-06-01T11:25:14.590Z,331.88
2019-06-01T11:26:14.568Z,236.25
2019-06-01T11:27:14.559Z,376.88
2019-06-01T11:28:14.548Z,388.12
2019-06-01T11:29:14.539Z,382.50
2019-06-01T11:30:14.536Z,213.75
2019-06-01T11:31:14.516Z,208.12
2019-06-01T11:32:14.507Z,376.88
2019-06-01T11:33:14.507Z,365.62
2019-06-01T11:34:14.486Z,343.12
2019-06-01T11:35:14.484Z,354.38
2019-06-01T11:36:14.466Z,348.75
2019-06-01T11:37:15.827Z,343.12
2019-06-01T11:38:14.443Z,343.12
2019-06-01T11:39:14.432Z,326.25
2019-06-01T11:40:14.430Z,241.88
2019-06-01T11:41:18.329Z,275.62
2019-06-01T11:42:14.400Z,337.50
2019-06-01T11:43:14.416Z,337.50
2019-06-01T11:44:14.381Z,326.25
2019-06-01T11:45:14.377Z,326.25
2019-06-01T11:46:14.358Z,331.88
2019-06-01T11:47:14.393Z,337.50
2019-06-01T11:48:14.338Z,337.50
2019-06-01T11:49:14.326Z,326.25
2019-06-01T11:50:14.325Z,337.50
2019-06-01T11:51:14.308Z,326.25
2019-06-01T11:52:14.300Z,331.88
2019-06-01T11:53:14.285Z,337.50
2019-06-01T11:54:14.274Z,315.00
2019-06-01T11:55:14.273Z,326.25
2019-06-01T11:56:14.258Z,326.25
2019-06-01T11:57:14.243Z,326.25
2019-06-01T11:58:14.240Z,315.00
2019-06-01T11:59:14.228Z,326.25
2019-06-01T12:00:14.226Z,320.62
2019-06-01T12:01:14.203Z,320.62
2019-06-01T12:02:14.196Z,320.62
2019-06-01T12:03:14.185Z,320.62
2019-06-01T12:04:14.169Z,180.00
2019-06-01T12:05:14.167Z,303.75
2019-06-01T12:06:14.153Z,303.75
2019-06-01T12:07:17.938Z,298.12
2019-06-01T12:08:14.127Z,303.75
2019-06-01T12:09:14.118Z,292.50
2019-06-01T12:10:14.105Z,298.12
2019-06-01T12:11:14.104Z,303.75
2019-06-01T12:12:14.092Z,303.75
2019-06-01T12:13:14.074Z,298.12
2019-06-01T12:14:14.067Z,303.75
2019-06-01T12:15:14.053Z,298.12
2019-06-01T12:16:14.058Z,292.50
2019-06-01T12:17:14.032Z,298.12
2019-06-01T12:18:14.022Z,298.12
2019-06-01T12:19:14.013Z,286.88
2019-06-01T12:20:14.019Z,298.12
2019-06-01T12:21:14.005Z,298.12
2019-06-01T12:22:13.980Z,286.88
2019-06-01T12:23:13.970Z,286.88
2019-06-01T12:24:13.965Z,286.88
2019-06-01T12:25:13.948Z,286.88
2019-06-01T12:26:13.946Z,298.12
2019-06-01T12:27:13.926Z,275.62
2019-06-01T12:28:13.918Z,281.25
2019-06-01T12:29:13.908Z,292.50
2019-06-01T12:30:13.899Z,292.50
2019-06-01T12:31:13.894Z,298.12
2019-06-01T12:32:13.874Z,292.50
2019-06-01T12:33:13.864Z,292.50
2019-06-01T12:34:13.855Z,286.88
2019-06-01T12:35:13.848Z,292.50
2019-06-01T12:36:13.845Z,292.50
2019-06-01T12:37:13.825Z,292.50